ADDS METAR Data INFO
IDs: Format: Raw Decoded Include TAF

Data at: 1527 UTC 18 Jun 2018

KPMU 181515Z AUTO 18004KT 10SM CLR 29/22 A3015 RMK AO2
KPMU 181455Z AUTO 17005KT 10SM CLR 28/23 A3015 RMK AO2
KPMU 181435Z AUTO 19004KT 10SM CLR 28/22 A3015 RMK AO2
KPMU 181415Z AUTO 22004KT 10SM CLR 27/23 A3015 RMK AO2
KPMU 181355Z AUTO VRB03KT 10SM CLR 27/23 A3015 RMK AO2
KPMU 181335Z AUTO 00000KT 10SM CLR 26/23 A3015 RMK AO2
KPMU 181315Z AUTO 16003KT 10SM CLR 26/23 A3015 RMK AO2
KPMU 181255Z AUTO 00000KT 10SM CLR 25/23 A3015 RMK AO2
KPMU 181235Z AUTO 00000KT 10SM CLR 24/23 A3014 RMK AO2
KPMU 181215Z AUTO 00000KT 10SM CLR 23/22 A3013 RMK AO2
KPMU 181155Z AUTO 00000KT 10SM CLR 22/22 A3013 RMK AO2
KPMU 181135Z AUTO 00000KT 9SM CLR 22/21 A3012 RMK AO2
KPMU 181115Z AUTO 00000KT 6SM BR CLR 21/21 A3012 RMK AO2
KPMU 181055Z AUTO 00000KT 8SM CLR 21/21 A3011 RMK AO2
KPMU 181035Z AUTO 00000KT 9SM FEW041 21/21 A3011 RMK AO2
KPMU 181015Z AUTO 00000KT 9SM FEW044 22/21 A3011 RMK AO2
KPMU 180955Z AUTO 00000KT 10SM FEW047 FEW060 22/21 A3010 RMK AO2
KPMU 180935Z AUTO 00000KT 8SM FEW042 SCT048 SCT055 22/21 A3010 RMK AO2
KPMU 180915Z AUTO 00000KT 8SM FEW043 SCT049 SCT055 22/21 A3009 RMK AO2
KPMU 180855Z AUTO 00000KT 10SM SCT046 BKN055 22/22 A3009 RMK AO2
KPMU 180835Z AUTO 00000KT 9SM FEW040 BKN049 22/21 A3009 RMK AO2
KPMU 180815Z AUTO 00000KT 10SM FEW041 SCT048 SCT055 22/22 A3008 RMK AO2
KPMU 180755Z AUTO 00000KT 10SM SCT046 BKN050 22/22 A3007 RMK AO2
KPMU 180735Z AUTO 00000KT 10SM SCT044 BKN050 22/22 A3008 RMK AO2
KPMU 180715Z AUTO 00000KT 10SM SCT043 22/22 A3008 RMK AO2
KPMU 180655Z AUTO 00000KT 10SM FEW043 23/22 A3007 RMK AO2
KPMU 180635Z AUTO 00000KT 10SM CLR 23/22 A3007 RMK AO2
KPMU 180615Z AUTO 00000KT 10SM CLR 23/22 A3008 RMK AO2
KPMU 180555Z AUTO 00000KT 10SM FEW041 23/22 A3008 RMK AO2
KPMU 180535Z AUTO 00000KT 10SM FEW044 23/22 A3008 RMK AO2
KPMU 180515Z AUTO 00000KT 10SM FEW047 24/22 A3009 RMK AO2
KPMU 180455Z AUTO 00000KT 10SM SCT046 SCT055 BKN070 24/22 A3010 RMK AO2
KPMU 180435Z AUTO VRB05KT 10SM FEW042 BKN060 OVC070 25/22 A3011 RMK AO2
KPMU 180415Z AUTO VRB06KT 10SM FEW047 BKN055 24/22 A3012 RMK AO2
KPMU 180355Z AUTO 00000KT 10SM FEW046 24/22 A3011 RMK AO2 LTG DSNT SE
KPMU 180335Z AUTO 16003KT 10SM FEW044 SCT110 24/22 A3010 RMK AO2
KPMU 180315Z AUTO 16007KT 10SM FEW022 FEW080 SCT110 25/22 A3010 RMK AO2
KPMU 180255Z AUTO 19009G18KT 4SM HZ SCT019 BKN035 OVC110 25/23 A3011 RMK AO2 LTG DSNT NE P0001
KPMU 180235Z AUTO 17012G20KT 10SM SCT035 BKN055 BKN070 28/23 A3010 RMK AO2
KPMU 180215Z AUTO 14004KT 10SM FEW060 27/24 A3008 RMK AO2
KPMU 180155Z AUTO 00000KT 10SM CLR 27/25 A3007 RMK AO2 LTG DSNT E AND SE
KPMU 180135Z AUTO 00000KT 10SM CLR 27/25 A3006 RMK AO2
KPMU 180115Z AUTO 00000KT 10SM CLR 29/24 A3005 RMK AO2
KPMU 180055Z AUTO 17003KT 10SM CLR 30/24 A3004 RMK AO2
KPMU 180035Z AUTO 00000KT 10SM CLR 30/24 A3004 RMK AO2
KPMU 180015Z AUTO 00000KT 10SM CLR 31/24 A3004 RMK AO2
KPMU 172355Z AUTO 15003KT 10SM CLR 32/23 A3003 RMK AO2
KPMU 172335Z AUTO 18005KT 10SM CLR 32/23 A3002 RMK AO2
KPMU 172315Z AUTO 17007KT 10SM CLR 32/23 A3002 RMK AO2
KPMU 172255Z AUTO 17005KT 10SM CLR 32/23 A3003 RMK AO2
KPMU 172235Z AUTO 18005KT 10SM CLR 32/23 A3003 RMK AO2
KPMU 172215Z AUTO 15006KT 10SM CLR 32/23 A3004 RMK AO2
KPMU 172155Z AUTO 18006KT 10SM CLR 32/23 A3004 RMK AO2
KPMU 172135Z AUTO 18005KT 10SM CLR 32/22 A3004 RMK AO2
KPMU 172115Z AUTO 14005KT 10SM FEW043 FEW050 FEW060 32/23 A3004 RMK AO2
KPMU 172055Z AUTO 16005KT 10SM FEW042 SCT050 SCT060 33/23 A3004 RMK AO2
KPMU 172035Z AUTO 14005KT 10SM FEW042 FEW090 32/24 A3005 RMK AO2
KPMU 172015Z AUTO 16006KT 10SM SCT070 32/23 A3006 RMK AO2
KPMU 171955Z AUTO 14004G16KT 10SM FEW042 FEW049 BKN075 32/23 A3006 RMK AO2
KPMU 171935Z AUTO VRB05KT 10SM SCT041 SCT049 SCT065 32/23 A3006 RMK AO2
KPMU 171915Z AUTO 15005KT 10SM FEW037 FEW070 FEW085 32/24 A3007 RMK AO2
KPMU 171855Z AUTO 15005KT 10SM FEW036 SCT070 31/24 A3008 RMK AO2
KPMU 171835Z AUTO 16006KT 10SM SCT035 SCT040 BKN065 32/24 A3008 RMK AO2
KPMU 171815Z AUTO 17006KT 10SM SCT036 SCT048 BKN070 31/23 A3008 RMK AO2
KPMU 171755Z AUTO 20004KT 10SM FEW034 FEW048 SCT055 31/23 A3008 RMK AO2
KPMU 171735Z AUTO 19007KT 160V250 10SM FEW035 FEW048 SCT055 31/24 A3009 RMK AO2
KPMU 171715Z AUTO 16005KT 10SM FEW031 FEW038 BKN060 31/24 A3009 RMK AO2
KPMU 171655Z AUTO VRB03KT 10SM FEW031 SCT042 BKN055 30/23 A3009 RMK AO2
KPMU 171635Z AUTO 23004KT 10SM FEW030 BKN044 30/23 A3009 RMK AO2
KPMU 171615Z AUTO 29004KT 10SM BKN031 30/24 A3010 RMK AO2
KPMU 171555Z AUTO 00000KT 10SM FEW031 SCT038 SCT046 30/24 A3010 RMK AO2
KPMU 171535Z AUTO 18005KT 10SM FEW023 SCT029 SCT034 30/24 A3010 RMK AO2
KPMU 171515Z AUTO 24005KT 10SM FEW022 29/24 A3010 RMK AO2
KPMU 171455Z AUTO 26007KT 10SM FEW020 29/24 A3010 RMK AO2
KPMU 171435Z AUTO 22005KT 10SM FEW020 29/24 A3010 RMK AO2
KPMU 171415Z AUTO 21005KT 10SM FEW020 28/24 A3011 RMK AO2
KPMU 171355Z AUTO 00000KT 10SM CLR 28/24 A3011 RMK AO2
KPMU 171335Z AUTO 23003KT 10SM CLR 27/24 A3011 RMK AO2
KPMU 171315Z AUTO 21006KT 10SM CLR 27/24 A3010 RMK AO2
KPMU 171255Z AUTO 21005KT 10SM CLR 26/24 A3009 RMK AO2
KPMU 171235Z AUTO 00000KT 10SM CLR 25/23 A3009 RMK AO2
KPMU 171215Z AUTO 00000KT 10SM CLR 25/23 A3008 RMK AO2
KPMU 171155Z AUTO 00000KT 6SM BR CLR 23/22 A3008 RMK AO2
KPMU 171135Z AUTO 00000KT 5SM BR CLR 23/22 A3008 RMK AO2
KPMU 171115Z AUTO 00000KT 3SM BR CLR 22/22 A3008 RMK AO2
KPMU 171055Z AUTO 00000KT 3SM BR CLR 22/22 A3007 RMK AO2
KPMU 171035Z AUTO 00000KT 3SM BR FEW049 22/22 A3006 RMK AO2
KPMU 171015Z AUTO 00000KT 4SM BR FEW048 22/22 A3005 RMK AO2
KPMU 170955Z AUTO 00000KT 5SM BR FEW050 FEW055 22/22 A3004 RMK AO2
KPMU 170935Z AUTO 00000KT 4SM BR FEW040 SCT049 SCT055 22/22 A3003 RMK AO2
KPMU 170915Z AUTO 00000KT 5SM BR FEW050 23/22 A3003 RMK AO2
KPMU 170855Z AUTO 00000KT 5SM BR SCT050 SCT055 23/22 A3002 RMK AO2
KPMU 170835Z AUTO 00000KT 6SM BR FEW048 BKN055 23/22 A3002 RMK AO2
KPMU 170815Z AUTO 00000KT 8SM FEW048 SCT055 23/22 A3002 RMK AO2
KPMU 170755Z AUTO 00000KT 7SM FEW050 23/22 A3002 RMK AO2
KPMU 170735Z AUTO 00000KT 5SM BR CLR 23/22 A3001 RMK AO2
KPMU 170715Z AUTO 00000KT 7SM CLR 23/22 A3001 RMK AO2
KPMU 170655Z AUTO 00000KT 7SM CLR 23/23 A3001 RMK AO2
KPMU 170635Z AUTO 00000KT 7SM CLR 23/23 A3001 RMK AO2
KPMU 170615Z AUTO 00000KT 9SM CLR 23/23 A3001 RMK AO2
KPMU 170555Z AUTO 00000KT 10SM CLR 23/23 A3001 RMK AO2
KPMU 170535Z AUTO 00000KT 10SM CLR 24/23 A3002 RMK AO2
KPMU 170515Z AUTO 00000KT 10SM CLR 24/23 A3002 RMK AO2
KPMU 170455Z AUTO 00000KT 10SM CLR 24/23 A3002 RMK AO2
KPMU 170435Z AUTO 00000KT 10SM CLR 24/23 A3002 RMK AO2
KPMU 170415Z AUTO 00000KT 10SM CLR 24/23 A3002 RMK AO2
KPMU 170355Z AUTO 00000KT 10SM CLR 25/23 A3002 RMK AO2
KPMU 170335Z AUTO 00000KT 10SM CLR 25/23 A3002 RMK AO2